createdAt,value
2022-11-29T00:02:16.025Z,91.30
2022-11-29T00:05:04.247Z,91.30
2022-11-29T00:07:52.266Z,91.40
2022-11-29T00:10:40.339Z,91.30
2022-11-29T00:13:29.738Z,91.40
2022-11-29T00:16:17.791Z,91.20
2022-11-29T00:19:05.841Z,91.30
2022-11-29T00:21:53.886Z,91.40
2022-11-29T00:24:43.062Z,91.70
2022-11-29T00:27:31.237Z,91.40
2022-11-29T00:30:20.877Z,91.40
2022-11-29T00:33:08.900Z,91.50
2022-11-29T00:35:56.971Z,91.50
2022-11-29T00:38:45.283Z,91.20
2022-11-29T00:41:33.719Z,91.40
2022-11-29T00:44:22.053Z,91.20
2022-11-29T00:47:11.450Z,91.30
2022-11-29T00:49:59.486Z,91.40
2022-11-29T00:52:47.520Z,91.30
2022-11-29T00:55:35.558Z,91.30
2022-11-29T00:58:23.935Z,91.30
2022-11-29T01:01:12.497Z,91.10
2022-11-29T01:04:03.023Z,91.20
2022-11-29T01:06:52.276Z,91.30
2022-11-29T01:09:40.390Z,91.20
2022-11-29T01:12:28.486Z,91.10
2022-11-29T01:15:17.134Z,91.20
2022-11-29T01:18:05.561Z,91.20
2022-11-29T01:20:59.613Z,91.20
2022-11-29T01:23:48.569Z,91.20
2022-11-29T01:26:36.614Z,91.20
2022-11-29T01:29:24.639Z,91.00
2022-11-29T01:32:13.305Z,91.30
2022-11-29T01:35:01.380Z,91.10
2022-11-29T01:37:50.759Z,91.10
2022-11-29T01:40:38.795Z,91.30
2022-11-29T01:43:27.135Z,91.30
2022-11-29T01:46:15.209Z,91.30
2022-11-29T01:49:08.190Z,91.20
2022-11-29T01:52:01.164Z,91.30
2022-11-29T01:54:55.501Z,91.40
2022-11-29T01:57:44.556Z,91.40
2022-11-29T02:00:32.632Z,91.30
2022-11-29T02:03:20.662Z,91.40
2022-11-29T02:06:09.221Z,91.30
2022-11-29T02:08:57.894Z,91.40
2022-11-29T02:12:06.052Z,91.30
2022-11-29T02:15:09.320Z,91.20
2022-11-29T02:18:06.626Z,91.20
2022-11-29T02:21:17.245Z,91.30
2022-11-29T02:24:41.283Z,91.20
2022-11-29T02:28:06.747Z,91.30
2022-11-29T02:31:28.982Z,90.90
2022-11-29T02:34:53.450Z,91.10
2022-11-29T02:37:59.058Z,91.10
2022-11-29T02:41:01.985Z,91.20
2022-11-29T02:44:14.432Z,91.30
2022-11-29T02:47:14.251Z,91.20
2022-11-29T02:50:18.269Z,91.30
2022-11-29T02:53:15.019Z,91.30
2022-11-29T02:56:11.199Z,91.30
2022-11-29T02:59:04.501Z,91.10
2022-11-29T03:02:02.935Z,91.20
2022-11-29T03:04:57.804Z,91.20
2022-11-29T03:07:54.485Z,91.20
2022-11-29T03:10:56.586Z,91.30
2022-11-29T03:13:53.165Z,91.30
2022-11-29T03:16:49.244Z,91.20
2022-11-29T03:20:04.678Z,91.20
2022-11-29T03:23:09.743Z,91.30
2022-11-29T03:26:04.875Z,91.40
2022-11-29T03:29:01.172Z,91.30
2022-11-29T03:31:55.606Z,91.40
2022-11-29T03:34:57.404Z,91.40
2022-11-29T03:37:55.639Z,91.40
2022-11-29T03:40:52.076Z,91.30
2022-11-29T03:43:46.566Z,91.30
2022-11-29T03:46:39.013Z,91.30
2022-11-29T03:49:30.781Z,91.20
2022-11-29T03:52:24.766Z,91.20
2022-11-29T03:55:32.356Z,91.20
2022-11-29T03:58:33.113Z,91.30
2022-11-29T04:01:53.620Z,91.90
2022-11-29T04:05:14.435Z,91.30
2022-11-29T04:08:27.928Z,91.10
2022-11-29T04:11:37.468Z,91.10
2022-11-29T04:14:53.608Z,91.30
2022-11-29T04:18:25.799Z,91.20
2022-11-29T04:21:32.334Z,91.00
2022-11-29T04:24:54.435Z,91.20
2022-11-29T04:27:54.322Z,91.30
2022-11-29T04:30:54.016Z,91.20
2022-11-29T04:34:10.424Z,91.20
2022-11-29T04:37:14.673Z,91.20
2022-11-29T04:40:24.915Z,91.20
2022-11-29T04:43:28.802Z,91.20
2022-11-29T04:46:56.364Z,91.20
2022-11-29T04:50:06.068Z,91.30
2022-11-29T04:53:16.188Z,91.30
2022-11-29T04:56:15.868Z,91.40
2022-11-29T04:59:10.891Z,91.50
2022-11-29T05:02:08.152Z,91.40
2022-11-29T05:05:04.962Z,91.30
2022-11-29T05:08:04.711Z,91.20
2022-11-29T05:11:00.926Z,91.20
2022-11-29T05:13:54.131Z,91.10
2022-11-29T05:16:48.392Z,91.20
2022-11-29T05:19:59.896Z,91.10
2022-11-29T05:22:59.323Z,91.10
2022-11-29T05:25:53.890Z,91.20
2022-11-29T05:28:50.844Z,91.20
2022-11-29T05:31:52.425Z,91.10
2022-11-29T05:34:56.004Z,91.00
2022-11-29T05:37:48.074Z,91.10
2022-11-29T05:40:51.929Z,91.00
2022-11-29T05:43:55.136Z,91.00
2022-11-29T05:46:51.850Z,91.00
2022-11-29T05:49:45.308Z,91.00
2022-11-29T05:52:45.734Z,91.00
2022-11-29T05:55:42.102Z,91.00
2022-11-29T05:58:39.986Z,91.00
2022-11-29T06:01:34.865Z,91.00
2022-11-29T06:04:30.040Z,91.10
2022-11-29T06:07:23.917Z,91.10
2022-11-29T06:10:17.764Z,91.10
2022-11-29T06:13:19.812Z,91.10
2022-11-29T06:16:30.645Z,91.40
2022-11-29T06:19:52.981Z,91.00
2022-11-29T06:22:58.830Z,91.00
2022-11-29T06:26:04.018Z,91.20
2022-11-29T06:29:02.562Z,91.30
2022-11-29T06:31:56.746Z,91.30
2022-11-29T06:34:54.947Z,91.30
2022-11-29T06:37:49.810Z,91.40
2022-11-29T06:40:38.313Z,91.40
2022-11-29T06:43:28.294Z,91.30
2022-11-29T06:46:29.915Z,91.40
2022-11-29T06:49:26.212Z,91.30
2022-11-29T06:52:24.890Z,91.40
2022-11-29T06:55:19.132Z,91.50
2022-11-29T06:58:14.769Z,91.50
2022-11-29T07:01:16.891Z,91.30
2022-11-29T07:04:33.264Z,91.30
2022-11-29T07:07:23.516Z,91.10
2022-11-29T07:10:17.011Z,91.00
2022-11-29T07:13:05.848Z,90.90
2022-11-29T07:16:04.347Z,90.80
2022-11-29T07:19:03.934Z,90.80
2022-11-29T07:21:59.769Z,90.80
2022-11-29T07:25:00.183Z,90.80
2022-11-29T07:27:53.864Z,90.80
2022-11-29T07:30:50.759Z,90.80
2022-11-29T07:33:48.140Z,90.80
2022-11-29T07:36:46.098Z,90.80
2022-11-29T07:39:43.802Z,90.90
2022-11-29T07:42:38.232Z,90.90
2022-11-29T07:45:29.841Z,91.00
2022-11-29T07:48:18.850Z,91.00
2022-11-29T07:51:07.188Z,90.70
2022-11-29T07:53:56.458Z,91.00
2022-11-29T07:56:44.431Z,91.00
2022-11-29T07:59:32.481Z,91.00
2022-11-29T08:02:27.842Z,91.10
2022-11-29T08:05:16.085Z,91.00
2022-11-29T08:08:04.347Z,91.10
2022-11-29T08:10:53.690Z,91.20
2022-11-29T08:13:41.735Z,91.30
2022-11-29T08:16:29.880Z,91.20
2022-11-29T08:19:17.883Z,91.30
2022-11-29T08:22:05.963Z,91.30
2022-11-29T08:24:53.970Z,91.50
2022-11-29T08:27:43.431Z,91.50
2022-11-29T08:30:31.595Z,91.50
2022-11-29T08:33:19.608Z,91.50
2022-11-29T08:36:08.860Z,91.50
2022-11-29T08:39:03.421Z,91.50
2022-11-29T08:41:55.615Z,91.40
2022-11-29T08:44:45.067Z,91.40
2022-11-29T08:47:40.225Z,91.40
2022-11-29T08:50:28.380Z,91.30
2022-11-29T08:53:34.084Z,91.40
2022-11-29T08:57:10.202Z,91.40
2022-11-29T08:59:32.684Z,91.30
2022-11-29T09:02:22.053Z,91.40
2022-11-29T09:05:11.644Z,91.30
2022-11-29T09:07:59.787Z,91.30
2022-11-29T09:10:48.640Z,91.40
2022-11-29T09:13:36.915Z,91.30
2022-11-29T09:16:26.960Z,91.30
2022-11-29T09:19:16.786Z,91.40
2022-11-29T09:22:05.115Z,91.20
2022-11-29T09:24:53.219Z,91.40
2022-11-29T09:27:41.753Z,91.40
2022-11-29T09:30:31.394Z,91.30
2022-11-29T09:33:19.488Z,91.40
2022-11-29T09:36:10.941Z,91.40
2022-11-29T09:38:59.021Z,91.40
2022-11-29T09:42:20.473Z,91.40
2022-11-29T09:45:11.679Z,91.50
2022-11-29T09:48:26.192Z,91.40
2022-11-29T09:51:24.481Z,91.20
2022-11-29T09:54:24.967Z,91.40
2022-11-29T09:57:15.083Z,91.50
2022-11-29T10:00:05.802Z,91.50
2022-11-29T10:02:57.584Z,91.60
2022-11-29T10:05:50.243Z,91.60
2022-11-29T10:08:44.953Z,91.50
2022-11-29T10:11:37.662Z,91.60
2022-11-29T10:14:30.843Z,91.50
2022-11-29T10:17:27.683Z,91.70
2022-11-29T10:20:19.331Z,91.60
2022-11-29T10:23:19.697Z,97.80
2022-11-29T10:26:11.880Z,91.50
2022-11-29T10:29:00.436Z,91.50
2022-11-29T10:31:50.209Z,91.40
2022-11-29T10:34:38.841Z,91.60
2022-11-29T10:37:30.099Z,91.60
2022-11-29T10:40:21.782Z,91.50
2022-11-29T10:43:11.232Z,91.60
2022-11-29T10:46:00.139Z,91.90
2022-11-29T10:48:48.262Z,91.60
2022-11-29T10:51:36.404Z,91.50
2022-11-29T10:54:40.514Z,91.60
2022-11-29T10:57:28.688Z,91.60
2022-11-29T11:00:18.710Z,91.60
2022-11-29T11:03:18.148Z,91.60
2022-11-29T11:06:15.828Z,91.60
2022-11-29T11:09:18.822Z,91.80
2022-11-29T11:12:08.810Z,91.70
2022-11-29T11:15:16.794Z,91.70
2022-11-29T11:18:07.832Z,91.70
2022-11-29T11:20:58.684Z,91.70
2022-11-29T11:23:53.886Z,91.70
2022-11-29T11:26:44.243Z,91.80
2022-11-29T11:29:36.810Z,91.80
2022-11-29T11:32:24.874Z,91.80
2022-11-29T11:35:24.958Z,91.90
2022-11-29T11:38:17.468Z,91.90
2022-11-29T11:41:16.505Z,91.90
2022-11-29T11:44:14.883Z,91.90
2022-11-29T11:47:06.441Z,91.90
2022-11-29T11:49:57.703Z,92.00
2022-11-29T11:52:52.468Z,92.00
2022-11-29T11:55:43.855Z,91.90
2022-11-29T11:58:34.018Z,91.90
2022-11-29T12:01:30.627Z,92.00
2022-11-29T12:04:22.364Z,92.00
2022-11-29T12:07:15.483Z,92.00
2022-11-29T12:10:13.007Z,92.00
2022-11-29T12:13:02.744Z,92.00
2022-11-29T12:15:51.908Z,92.00
2022-11-29T12:18:45.234Z,92.00
2022-11-29T12:21:37.582Z,92.00
2022-11-29T12:24:31.825Z,92.00
2022-11-29T12:27:21.556Z,92.00
2022-11-29T12:30:14.184Z,92.00
2022-11-29T12:33:18.356Z,92.00
2022-11-29T12:36:19.900Z,92.00
2022-11-29T12:39:28.123Z,92.00
2022-11-29T12:42:27.500Z,92.10
2022-11-29T12:45:37.587Z,92.10
2022-11-29T12:48:35.976Z,92.10
2022-11-29T12:51:35.128Z,92.10
2022-11-29T12:54:45.042Z,92.20
2022-11-29T12:57:42.918Z,92.20
2022-11-29T13:00:39.025Z,92.20
2022-11-29T13:03:31.347Z,92.10
2022-11-29T13:06:28.538Z,92.10
2022-11-29T13:09:39.732Z,92.20
2022-11-29T13:12:35.030Z,92.10
2022-11-29T13:15:30.770Z,92.10
2022-11-29T13:18:26.541Z,92.10
2022-11-29T13:21:17.318Z,92.10
2022-11-29T13:24:10.752Z,92.10
2022-11-29T13:26:59.787Z,92.10
2022-11-29T13:29:49.431Z,92.00
2022-11-29T13:32:46.422Z,92.10
2022-11-29T13:35:43.061Z,92.10
2022-11-29T13:38:37.023Z,92.10
2022-11-29T13:41:31.203Z,92.10
2022-11-29T13:44:27.823Z,92.10
2022-11-29T13:47:18.149Z,92.50
2022-11-29T13:50:36.086Z,92.10
2022-11-29T13:53:26.625Z,92.10
2022-11-29T13:56:29.513Z,92.20
2022-11-29T13:59:22.928Z,92.20
2022-11-29T14:02:28.609Z,92.20
2022-11-29T14:05:26.440Z,92.20
2022-11-29T14:08:47.755Z,92.20
2022-11-29T14:11:46.787Z,92.10
2022-11-29T14:14:41.419Z,92.20
2022-11-29T14:17:36.809Z,92.20
2022-11-29T14:20:57.094Z,92.30
2022-11-29T14:23:46.712Z,92.30
2022-11-29T14:26:34.752Z,92.30
2022-11-29T14:29:55.269Z,92.70
2022-11-29T14:32:56.538Z,92.30
2022-11-29T14:35:49.421Z,92.40
2022-11-29T14:38:46.656Z,92.40
2022-11-29T14:41:52.144Z,92.20
2022-11-29T14:44:46.686Z,92.50
2022-11-29T14:47:38.227Z,92.50
2022-11-29T14:50:34.059Z,92.50
2022-11-29T14:53:31.131Z,92.50
2022-11-29T14:56:43.348Z,92.50
2022-11-29T14:59:47.959Z,92.50
2022-11-29T15:02:42.024Z,92.50
2022-11-29T15:05:33.345Z,92.50
2022-11-29T15:08:33.383Z,92.50
2022-11-29T15:11:34.958Z,92.50
2022-11-29T15:14:32.409Z,92.50
2022-11-29T15:17:28.626Z,92.50
2022-11-29T15:20:54.832Z,92.50
2022-11-29T15:23:44.338Z,92.50
2022-11-29T15:26:32.604Z,92.80
2022-11-29T15:29:21.643Z,92.60
2022-11-29T15:32:14.532Z,92.50
2022-11-29T15:35:02.583Z,92.50
2022-11-29T15:37:51.270Z,92.50
2022-11-29T15:40:52.559Z,92.50
2022-11-29T15:43:41.851Z,92.50
2022-11-29T15:46:32.257Z,92.50
2022-11-29T15:49:25.727Z,92.50
2022-11-29T15:52:20.736Z,92.50
2022-11-29T15:55:14.059Z,92.50
2022-11-29T15:58:08.739Z,92.50
2022-11-29T16:00:59.200Z,92.50
2022-11-29T16:03:48.021Z,92.50
2022-11-29T16:06:41.472Z,92.50
2022-11-29T16:09:35.318Z,92.50
2022-11-29T16:12:23.398Z,92.50
2022-11-29T16:15:26.824Z,92.50
2022-11-29T16:18:25.485Z,92.50
2022-11-29T16:21:25.587Z,92.60
2022-11-29T16:24:21.676Z,92.60
2022-11-29T16:27:09.793Z,92.60
2022-11-29T16:29:58.652Z,92.60
2022-11-29T16:32:51.421Z,92.60
2022-11-29T16:35:39.439Z,92.60
2022-11-29T16:38:27.551Z,92.60
2022-11-29T16:41:25.783Z,92.60
2022-11-29T16:44:55.515Z,92.60
2022-11-29T16:47:52.232Z,92.60
2022-11-29T16:50:40.330Z,92.70
2022-11-29T16:53:35.009Z,92.70
2022-11-29T16:56:26.853Z,92.70
2022-11-29T16:59:17.268Z,92.70
2022-11-29T17:02:16.391Z,92.70
2022-11-29T17:05:04.922Z,92.70
2022-11-29T17:07:53.294Z,92.70
2022-11-29T17:10:41.395Z,92.60
2022-11-29T17:13:30.711Z,92.60
2022-11-29T17:16:20.298Z,92.60
2022-11-29T17:19:12.846Z,92.60
2022-11-29T17:22:01.020Z,92.50
2022-11-29T17:24:49.537Z,92.50
2022-11-29T17:27:37.947Z,92.50
2022-11-29T17:30:28.801Z,92.50
2022-11-29T17:33:16.938Z,92.50
2022-11-29T17:36:06.829Z,92.50
2022-11-29T17:38:54.882Z,92.50
2022-11-29T17:41:43.196Z,92.50
2022-11-29T17:44:31.225Z,92.50
2022-11-29T17:47:20.530Z,92.50
2022-11-29T17:50:09.187Z,92.50
2022-11-29T17:52:57.224Z,92.50
2022-11-29T17:55:45.210Z,92.50
2022-11-29T17:58:33.657Z,92.50
2022-11-29T18:01:23.500Z,92.50
2022-11-29T18:04:12.932Z,92.50
2022-11-29T18:07:01.545Z,92.50
2022-11-29T18:09:49.692Z,92.50
2022-11-29T18:12:37.774Z,92.60
2022-11-29T18:15:25.814Z,92.60
2022-11-29T18:18:14.189Z,92.60
2022-11-29T18:21:06.131Z,92.60
2022-11-29T18:23:54.632Z,92.60
2022-11-29T18:26:42.897Z,92.70
2022-11-29T18:29:37.522Z,92.60
2022-11-29T18:32:27.443Z,92.60
2022-11-29T18:35:15.471Z,92.60
2022-11-29T18:38:20.158Z,92.70
2022-11-29T18:41:09.330Z,92.60
2022-11-29T18:43:59.319Z,92.70
2022-11-29T18:46:47.901Z,92.70
2022-11-29T18:49:35.941Z,92.70
2022-11-29T18:52:23.923Z,92.70
2022-11-29T18:55:13.308Z,92.70
2022-11-29T18:58:01.322Z,92.70
2022-11-29T19:00:49.339Z,92.70
2022-11-29T19:03:39.195Z,92.70
2022-11-29T19:06:35.408Z,92.70
2022-11-29T19:09:27.035Z,92.70
2022-11-29T19:12:16.353Z,92.70
2022-11-29T19:15:04.606Z,92.70
2022-11-29T19:17:53.667Z,92.70
2022-11-29T19:20:41.659Z,92.70
2022-11-29T19:23:29.802Z,92.70
2022-11-29T19:26:17.843Z,92.70
2022-11-29T19:29:07.369Z,92.70
2022-11-29T19:31:55.402Z,92.70
2022-11-29T19:34:43.416Z,92.70
2022-11-29T19:37:31.496Z,92.70
2022-11-29T19:40:19.872Z,92.70
2022-11-29T19:43:07.884Z,92.70
2022-11-29T19:45:57.354Z,92.70
2022-11-29T19:48:45.852Z,92.70
2022-11-29T19:51:34.377Z,92.70
2022-11-29T19:54:22.453Z,92.80
2022-11-29T19:57:10.495Z,92.70
2022-11-29T19:59:58.549Z,92.80
2022-11-29T20:02:47.994Z,92.70
2022-11-29T20:05:36.119Z,92.70
2022-11-29T20:08:24.135Z,92.70
2022-11-29T20:11:14.581Z,92.80
2022-11-29T20:14:05.079Z,92.80
2022-11-29T20:16:53.077Z,92.70
2022-11-29T20:19:42.536Z,92.80
2022-11-29T20:22:30.594Z,92.80
2022-11-29T20:25:18.753Z,92.80
2022-11-29T20:28:07.600Z,92.70
2022-11-29T20:30:56.722Z,92.70
2022-11-29T20:33:46.688Z,92.80
2022-11-29T20:36:47.881Z,92.70
2022-11-29T20:39:47.009Z,92.80
2022-11-29T20:42:47.731Z,92.80
2022-11-29T20:45:37.168Z,92.90
2022-11-29T20:48:25.818Z,92.80
2022-11-29T20:51:14.436Z,92.90
2022-11-29T20:54:04.375Z,92.80
2022-11-29T20:56:52.371Z,92.80
2022-11-29T20:59:40.352Z,92.80
2022-11-29T21:02:28.461Z,92.80
2022-11-29T21:05:16.688Z,92.70
2022-11-29T21:08:04.873Z,92.70
2022-11-29T21:10:54.526Z,92.70
2022-11-29T21:13:43.073Z,92.70
2022-11-29T21:16:32.125Z,92.60
2022-11-29T21:19:24.667Z,92.60
2022-11-29T21:22:19.763Z,92.60
2022-11-29T21:25:16.238Z,92.60
2022-11-29T21:28:11.691Z,92.60
2022-11-29T21:31:00.267Z,92.60
2022-11-29T21:33:48.816Z,92.60
2022-11-29T21:36:37.495Z,92.60
2022-11-29T21:39:31.087Z,92.60
2022-11-29T21:42:19.259Z,92.60
2022-11-29T21:45:15.178Z,92.60
2022-11-29T21:48:03.760Z,92.60
2022-11-29T21:50:51.771Z,92.60
2022-11-29T21:53:40.713Z,92.60
2022-11-29T21:56:28.763Z,92.60
2022-11-29T21:59:16.863Z,92.60
2022-11-29T22:02:06.489Z,92.70
2022-11-29T22:04:54.710Z,92.70
2022-11-29T22:07:42.800Z,92.70
2022-11-29T22:10:32.419Z,92.70
2022-11-29T22:13:20.492Z,92.70
2022-11-29T22:16:10.351Z,92.70
2022-11-29T22:18:59.777Z,92.80
2022-11-29T22:21:50.021Z,92.50
2022-11-29T22:24:38.917Z,92.70
2022-11-29T22:27:26.917Z,92.70
2022-11-29T22:30:15.254Z,92.70
2022-11-29T22:33:03.279Z,92.70
2022-11-29T22:35:52.607Z,92.70
2022-11-29T22:38:41.549Z,92.60
2022-11-29T22:41:29.604Z,92.60
2022-11-29T22:44:17.680Z,92.70
2022-11-29T22:47:05.813Z,92.60
2022-11-29T22:49:53.858Z,92.60
2022-11-29T22:52:43.191Z,92.60
2022-11-29T22:55:31.231Z,92.60
2022-11-29T22:58:19.215Z,92.60
2022-11-29T23:01:09.524Z,92.60
2022-11-29T23:03:59.495Z,92.50
2022-11-29T23:06:47.816Z,92.50
2022-11-29T23:09:37.244Z,92.60
2022-11-29T23:12:25.295Z,92.60
2022-11-29T23:15:13.330Z,92.60
2022-11-29T23:18:01.342Z,92.60
2022-11-29T23:20:49.414Z,92.60
2022-11-29T23:23:38.243Z,92.60
2022-11-29T23:26:29.663Z,92.60
2022-11-29T23:29:19.664Z,92.60
2022-11-29T23:32:07.785Z,92.70
2022-11-29T23:34:55.897Z,92.60
2022-11-29T23:37:43.972Z,92.70
2022-11-29T23:40:32.044Z,92.70
2022-11-29T23:43:21.664Z,92.80
2022-11-29T23:46:13.155Z,93.10
2022-11-29T23:49:01.212Z,92.80
2022-11-29T23:51:49.254Z,92.60
2022-11-29T23:54:37.277Z,92.70
2022-11-29T23:57:25.301Z,92.70
